This is the latest recevied weather packets stored in our database for station/object SQ9NFI-4. If no packets are shown the sender has not sent any weather packets the latest 10 day(s).
| Time | Temp. | Humidity | Pressure | Rain* | Wind** | Luminosity | Snow |
|---|---|---|---|---|---|---|---|
| 1777524916 | 0° C | 72% | 1030.8 hPa | 0 mm | - | 87 W/m² | - |
| 1777524616 | -0.56° C | 74% | 1030.8 hPa | 0 mm | - | 76 W/m² | - |
| 1777524316 | -1.11° C | 76% | 1030.8 hPa | 0 mm | - | 68 W/m² | - |
| 1777524016 | -1.67° C | 76% | 1030.8 hPa | 0 mm | - | 68 W/m² | - |
| 1777523716 | -1.67° C | 77% | 1030.5 hPa | 0 mm | - | 64 W/m² | - |
| 1777523416 | -2.78° C | 79% | 1030.5 hPa | 0 mm | - | 55 W/m² | - |
| 1777523116 | -3.33° C | 89% | 1030.5 hPa | 0 mm | - | 46 W/m² | - |
| 1777522816 | -3.89° C | 90% | 1030.5 hPa | 0 mm | - | 43 W/m² | - |
| 1777522516 | -4.44° C | 91% | 1030.5 hPa | 0 mm | - | 31 W/m² | - |
| 1777522216 | -4.44° C | 92% | 1030.5 hPa | 0 mm | - | 29 W/m² | - |
| 1777521916 | -5° C | 92% | 1030.5 hPa | 0 mm | - | 23 W/m² | - |
| 1777521616 | -5° C | 92% | 1030.8 hPa | 0 mm | - | 20 W/m² | - |
| 1777521316 | -5.56° C | 92% | 1030.8 hPa | 0 mm | - | 17 W/m² | - |
| 1777521016 | -5.56° C | 92% | 1030.8 hPa | 0 mm | - | 14 W/m² | - |
| 1777520716 | -6.11° C | 92% | 1030.5 hPa | 0 mm | - | 11 W/m² | - |
| 1777520415 | -6.11° C | 92% | 1030.5 hPa | 0 mm | - | 8 W/m² | - |
| 1777520116 | -6.11° C | 92% | 1030.5 hPa | 0 mm | - | 7 W/m² | - |
| 1777519816 | -6.11° C | 92% | 1030.5 hPa | 0 mm | - | 5 W/m² | - |
| 1777519516 | -6.11° C | 92% | 1030.5 hPa | 0 mm | - | 3 W/m² | - |
| 1777519216 | -6.11° C | 92% | 1030.5 hPa | 0 mm | - | 2 W/m² | - |
| 1777518916 | -6.11° C | 92% | 1030.5 hPa | 0 mm | - | 1 W/m² | - |
| 1777518615 | -6.11° C | 91% | 1030.5 hPa | 0 mm | - | 1 W/m² | - |
| 1777518315 | -6.11° C | 92% | 1030.5 hPa | 0 mm | - | 0 W/m² | - |
| 1777518015 | -6.11° C | 91% | 1030.5 hPa | 0 mm | - | 0 W/m² | - |
| 1777517716 | -6.11° C | 92% | 1030.5 hPa | 0 mm | - | 0 W/m² | - |
* Rain latest hour (hover to see other rain measurements)
** Current wind speed in m/s (hover to see current wind gust speed)